Time;durP1;ratioP1;P1;durP2;ratioP2;P2;SDS_P1;SDS_P2;PMS_P1;PMS_P2;Temp;Humidity;BMP_temperature;BMP_pressure;BME280_temperature;BME280_humidity;BME280_pressure;Samples;Min_cycle;Max_cycle;Signal;HPM_P1;HPM_P2
2022/04/12 00:02:25;;;;;;;2.53;1.20;;;;;;;1.13;68.81;100890.03;5092567;28;20055;-87
2022/04/12 00:05:11;;;;;;;4.32;1.50;;;;;;;1.14;69.12;100891.69;5098702;28;20051;-86
2022/04/12 00:07:55;;;;;;;3.78;1.30;;;;;;;1.08;69.35;100892.53;5096064;28;20093;-87
2022/04/12 00:10:21;;;;;;;2.90;1.48;;;;;;;1.06;69.21;100894.63;5058825;28;20040;-88
2022/04/12 00:12:47;;;;;;;4.75;1.60;;;;;;;1.03;69.64;100895.88;5099277;28;20122;-88
2022/04/12 00:15:13;;;;;;;9.07;1.90;;;;;;;1.01;69.66;100899.81;5110663;28;20122;-88
2022/04/12 00:21:01;;;;;;;4.43;1.70;;;;;;;0.92;69.87;100910.03;5092431;28;20434;-88
2022/04/12 00:23:46;;;;;;;3.78;1.50;;;;;;;0.93;69.92;100900.06;5091528;28;20123;-87
2022/04/12 00:26:31;;;;;;;2.22;1.55;;;;;;;0.93;69.80;100905.47;5111723;28;20046;-85
2022/04/12 00:28:56;;;;;;;3.53;1.50;;;;;;;0.92;70.28;100911.91;5093255;28;20130;-85
2022/04/12 00:31:22;;;;;;;5.85;2.08;;;;;;;0.90;70.21;100907.56;5098705;28;20037;-85
2022/04/12 00:33:48;;;;;;;3.22;1.60;;;;;;;0.89;70.48;100903.19;5104084;28;20366;-85
2022/04/12 00:36:32;;;;;;;3.40;1.30;;;;;;;0.86;70.63;100894.66;5079969;28;20051;-86
2022/04/12 00:39:15;;;;;;;4.45;1.88;;;;;;;0.82;70.38;100899.66;5101556;28;20169;-90
2022/04/12 00:42:01;;;;;;;4.30;1.52;;;;;;;0.78;71.00;100901.13;5093001;28;20562;-89
2022/04/12 00:44:45;;;;;;;4.03;1.75;;;;;;;0.74;71.06;100893.66;5080381;28;20046;-89
2022/04/12 00:47:11;;;;;;;5.70;1.85;;;;;;;0.70;70.92;100898.66;5079198;28;20036;-89
2022/04/12 00:49:36;;;;;;;3.83;1.45;;;;;;;0.70;71.39;100898.66;5109452;28;20046;-87
2022/04/12 00:52:21;;;;;;;3.70;1.58;;;;;;;0.74;72.11;100904.47;5110860;28;20088;-88
2022/04/12 00:55:06;;;;;;;4.03;1.83;;;;;;;0.75;71.74;100912.34;5109798;28;20050;-88
2022/04/12 00:57:51;;;;;;;5.50;1.60;;;;;;;0.75;71.55;100915.06;5091485;28;20192;-87
2022/04/12 01:00:36;;;;;;;4.72;1.23;;;;;;;0.72;72.02;100914.66;5077059;28;20628;-86
2022/04/12 01:03:20;;;;;;;3.80;1.42;;;;;;;0.72;72.05;100915.47;5099176;28;20089;-87
2022/04/12 01:06:05;;;;;;;2.97;1.50;;;;;;;0.71;72.15;100919.22;5120856;27;20471;-88
2022/04/12 01:08:31;;;;;;;2.47;1.17;;;;;;;0.69;71.96;100926.69;5112532;28;20564;-88
2022/04/12 01:10:59;;;;;;;4.68;1.58;;;;;;;0.69;72.51;100925.84;5100632;28;20044;-88
2022/04/12 01:13:43;;;;;;;4.50;1.55;;;;;;;0.69;72.65;100934.78;5090439;28;20152;-88
2022/04/12 01:16:27;;;;;;;5.10;1.60;;;;;;;0.70;72.67;100930.25;5112340;27;20517;-88
2022/04/12 01:19:11;;;;;;;2.40;1.35;;;;;;;0.69;72.42;100931.25;5091221;28;20128;-87
2022/04/12 01:22:05;;;;;;;4.95;1.52;;;;;;;0.63;72.37;100942.91;5092574;28;20058;-87
2022/04/12 01:24:49;;;;;;;3.88;1.08;;;;;;;0.63;72.46;100948.31;5077048;28;20418;-87
2022/04/12 01:27:15;;;;;;;6.15;1.63;;;;;;;0.61;72.69;100953.91;5092305;28;20510;-85
2022/04/12 01:29:41;;;;;;;2.88;1.25;;;;;;;0.58;73.08;100954.34;5107005;28;20487;-87
2022/04/12 01:32:07;;;;;;;3.67;1.55;;;;;;;0.55;73.33;100960.16;5101347;28;20043;-86
2022/04/12 01:34:36;;;;;;;2.80;1.38;;;;;;;0.53;73.21;100959.53;5096345;28;20490;-86
2022/04/12 01:37:21;;;;;;;3.40;1.50;;;;;;;0.51;73.13;100959.72;5091409;28;20601;-86
2022/04/12 01:40:06;;;;;;;2.92;1.55;;;;;;;0.47;73.66;100954.94;5090969;28;20097;-85
2022/04/12 01:42:52;;;;;;;6.65;1.30;;;;;;;0.47;73.66;100966.56;5079311;28;20137;-85
2022/04/12 01:45:37;;;;;;;3.88;1.50;;;;;;;0.46;73.67;100967.63;5096385;28;20046;-85
2022/04/12 01:48:21;;;;;;;3.38;1.40;;;;;;;0.45;74.37;100974.06;5095564;28;20051;-85
2022/04/12 01:51:05;;;;;;;3.20;1.60;;;;;;;0.38;73.96;100967.84;5094663;28;20059;-85
2022/04/12 01:53:50;;;;;;;2.88;1.67;;;;;;;0.36;74.56;100972.59;5109505;28;20096;-85
2022/04/12 01:56:15;;;;;;;4.25;1.80;;;;;;;0.33;74.85;100970.28;5115898;28;20039;-85
2022/04/12 01:58:42;;;;;;;2.47;1.30;;;;;;;0.28;74.92;100978.19;5112733;28;20127;-85
2022/04/12 02:01:26;;;;;;;4.38;1.48;;;;;;;0.29;75.29;100982.53;5079493;28;20182;-84
2022/04/12 02:04:11;;;;;;;2.53;1.42;;;;;;;0.27;75.50;100977.34;5094846;28;20043;-84
2022/04/12 02:06:36;;;;;;;3.50;1.20;;;;;;;0.26;75.41;100981.09;5077030;28;20040;-84
2022/04/12 02:09:02;;;;;;;4.10;1.42;;;;;;;0.23;75.73;100981.50;5098369;28;20401;-84
2022/04/12 02:11:46;;;;;;;6.00;1.42;;;;;;;0.25;76.04;100984.00;5083831;28;20085;-84
2022/04/12 02:14:30;;;;;;;3.25;2.05;;;;;;;0.21;75.95;100988.97;5098614;28;20042;-85
2022/04/12 02:17:14;;;;;;;3.75;1.35;;;;;;;0.16;75.81;100994.13;5115004;28;20100;-84
2022/04/12 02:19:58;;;;;;;4.40;1.50;;;;;;;0.16;76.07;100986.03;5109637;28;20131;-84
2022/04/12 02:22:43;;;;;;;5.50;1.50;;;;;;;0.18;76.71;100993.97;5095227;28;20067;-84
2022/04/12 02:25:27;;;;;;;3.90;1.50;;;;;;;0.17;76.55;100998.50;5094258;28;20136;-84
2022/04/12 02:27:53;;;;;;;1.95;1.30;;;;;;;0.15;76.41;100989.78;5094017;28;20036;-84
2022/04/12 02:30:18;;;;;;;4.43;1.50;;;;;;;0.11;76.53;100995.78;5100028;28;20051;-84
2022/04/12 02:32:44;;;;;;;8.77;1.50;;;;;;;0.11;76.72;101006.59;5114728;28;20040;-84
2022/04/12 02:35:28;;;;;;;5.22;1.50;;;;;;;0.08;77.21;100999.72;5083955;28;20068;-85
2022/04/12 02:38:13;;;;;;;4.25;1.20;;;;;;;0.06;77.19;101001.81;5112160;28;20540;-86
2022/04/12 02:40:57;;;;;;;3.95;1.20;;;;;;;0.05;76.54;101005.53;5099790;28;20552;-87
2022/04/12 02:43:41;;;;;;;3.35;1.20;;;;;;;0.04;77.26;101003.06;5093214;28;20051;-85
2022/04/12 02:46:26;;;;;;;2.00;1.10;;;;;;;0.01;77.41;100998.91;5093034;28;20047;-84
2022/04/12 02:49:10;;;;;;;4.75;1.60;;;;;;;-0.01;77.48;101006.34;5093476;28;20044;-84
2022/04/12 02:51:36;;;;;;;4.55;1.33;;;;;;;-0.04;77.45;101004.06;5091635;28;20039;-84
2022/04/12 02:54:02;;;;;;;3.05;1.35;;;;;;;-0.05;77.83;101008.63;5074756;28;20122;-85
2022/04/12 02:56:46;;;;;;;3.58;1.90;;;;;;;-0.07;78.24;100999.06;5094554;28;20083;-84
2022/04/12 02:59:30;;;;;;;4.00;1.70;;;;;;;-0.09;78.27;101003.84;5106698;28;20594;-83
2022/04/12 03:02:14;;;;;;;5.93;2.10;;;;;;;-0.08;78.41;101013.59;5078228;28;20050;-84
2022/04/12 03:04:58;;;;;;;4.13;2.22;;;;;;;-0.08;78.58;101005.50;5110119;28;20536;-85
2022/04/12 03:07:24;;;;;;;4.97;2.55;;;;;;;-0.10;79.03;101011.09;5098548;28;20040;-84
2022/04/12 03:09:49;;;;;;;6.07;2.25;;;;;;;-0.11;79.14;101012.13;5109723;28;20032;-84
2022/04/12 03:12:34;;;;;;;4.78;2.53;;;;;;;-0.11;79.02;101011.31;5084771;28;20463;-83
2022/04/12 03:15:18;;;;;;;5.07;2.53;;;;;;;-0.11;78.96;101016.69;5100451;28;20516;-84
2022/04/12 03:18:03;;;;;;;3.53;1.92;;;;;;;-0.11;79.66;101014.00;5085129;28;20087;-84
2022/04/12 03:20:51;;;;;;;3.42;1.88;;;;;;;-0.09;79.47;101017.31;5064335;28;20059;-84
2022/04/12 03:23:36;;;;;;;2.65;1.85;;;;;;;-0.10;79.73;101019.19;5093758;28;20055;-85
2022/04/12 03:26:02;;;;;;;4.28;1.80;;;;;;;-0.09;80.23;101022.72;5094806;28;20042;-84
2022/04/12 03:28:28;;;;;;;4.38;2.00;;;;;;;-0.07;80.02;101032.25;5075663;28;20055;-83
2022/04/12 03:31:12;;;;;;;3.92;1.42;;;;;;;-0.07;80.23;101028.72;5076601;28;20082;-84
2022/04/12 03:33:57;;;;;;;3.75;1.65;;;;;;;-0.08;79.96;101038.69;5080474;28;20050;-83
2022/04/12 03:36:41;;;;;;;3.58;1.17;;;;;;;-0.05;80.27;101038.28;5098276;28;20088;-83
2022/04/12 03:39:25;;;;;;;1.95;1.10;;;;;;;-0.04;80.90;101049.91;5090532;28;20192;-82
2022/04/12 03:41:52;;;;;;;3.67;1.83;;;;;;;0.02;80.47;101054.50;5073565;28;20592;-83
2022/04/12 03:44:18;;;;;;;2.20;1.05;;;;;;;0.06;80.55;101054.94;5093024;28;20487;-84
2022/04/12 03:47:02;;;;;;;5.10;1.33;;;;;;;0.09;80.40;101063.44;5100801;28;20415;-80
2022/04/12 03:49:46;;;;;;;3.13;1.30;;;;;;;0.17;80.71;101057.88;5103928;28;20139;-83
2022/04/12 03:52:31;;;;;;;2.13;1.50;;;;;;;0.28;80.63;101054.59;5092490;28;20059;-83
2022/04/12 03:55:30;;;;;;;3.38;1.15;;;;;;;0.41;80.62;101059.19;5091508;28;20606;-84
2022/04/12 03:58:08;;;;;;;7.53;1.40;;;;;;;0.55;80.95;101054.66;5087958;28;20509;-83
2022/04/12 04:00:34;;;;;;;5.15;1.50;;;;;;;0.66;80.71;101062.13;5108309;28;20073;-83
2022/04/12 04:03:00;;;;;;;3.70;1.60;;;;;;;0.83;80.61;101058.00;5093972;28;20039;-82
2022/04/12 04:05:45;;;;;;;4.60;1.25;;;;;;;1.04;80.56;101058.81;5081227;28;20046;-82
2022/04/12 04:08:29;;;;;;;5.63;1.50;;;;;;;1.36;79.99;101047.16;5096505;28;20054;-81
2022/04/12 04:11:13;;;;;;;4.65;2.00;;;;;;;1.68;79.09;101061.66;5074726;28;20055;-81
2022/04/12 04:14:00;;;;;;;2.50;1.52;;;;;;;1.94;78.81;101070.75;5092182;28;20575;-82
2022/04/12 04:16:44;;;;;;;4.05;1.52;;;;;;;2.12;77.91;101057.34;5077056;28;20525;-83
2022/04/12 04:19:29;;;;;;;3.55;1.58;;;;;;;2.30;76.94;101064.75;5076663;28;20062;-83
2022/04/12 04:21:55;;;;;;;4.65;1.50;;;;;;;2.45;76.22;101072.59;5075348;28;20032;-82
2022/04/12 04:24:21;;;;;;;3.67;1.65;;;;;;;2.60;75.58;101078.50;5091523;28;20036;-81
2022/04/12 04:27:16;;;;;;;3.58;1.35;;;;;;;2.83;75.49;101078.78;5068121;28;20390;-82
2022/04/12 04:30:02;;;;;;;2.72;1.55;;;;;;;3.05;73.91;101084.66;5067538;28;20056;-83
2022/04/12 04:32:47;;;;;;;3.42;1.50;;;;;;;3.38;73.52;101084.41;5068909;28;20078;-83
2022/04/12 04:35:13;;;;;;;3.00;1.70;;;;;;;3.65;72.71;101081.44;5066976;28;20036;-81
2022/04/12 04:37:46;;;;;;;3.70;1.42;;;;;;;3.87;71.84;101086.19;5068032;28;20041;-82
2022/04/12 04:40:18;;;;;;;2.97;1.45;;;;;;;4.06;71.14;101088.91;5054716;28;20045;-82
2022/04/12 04:43:02;;;;;;;4.82;2.13;;;;;;;4.33;70.38;101092.94;5061287;28;20534;-81
2022/04/12 04:45:46;;;;;;;3.38;1.30;;;;;;;4.61;70.03;101088.81;5041647;28;20048;-82
2022/04/12 04:48:30;;;;;;;5.85;1.50;;;;;;;5.01;68.50;101097.19;5049751;28;20090;-82
2022/04/12 04:51:15;;;;;;;3.20;1.60;;;;;;;5.40;67.38;101101.16;5043822;28;20079;-82
2022/04/12 04:53:59;;;;;;;2.78;1.42;;;;;;;5.82;66.76;101107.31;5043702;28;20115;-83
2022/04/12 04:56:44;;;;;;;2.83;1.50;;;;;;;6.23;64.86;101106.31;5045389;28;20044;-83
2022/04/12 04:59:11;;;;;;;4.25;1.40;;;;;;;6.55;64.04;101111.31;5046985;28;20041;-82
2022/04/12 05:01:37;;;;;;;3.78;1.25;;;;;;;6.78;63.15;101113.13;5046268;28;20040;-82
2022/04/12 05:04:02;;;;;;;4.90;1.63;;;;;;;6.94;61.71;101115.91;5046742;28;20037;-82
2022/04/12 05:06:47;;;;;;;3.78;1.98;;;;;;;7.07;61.45;101124.81;5049769;28;20052;-85
2022/04/12 05:09:31;;;;;;;5.55;1.40;;;;;;;7.12;60.42;101123.03;5045950;28;20118;-83
2022/04/12 05:12:16;;;;;;;3.35;1.73;;;;;;;7.33;60.45;101128.84;5045526;28;20414;-82
2022/04/12 05:15:01;;;;;;;4.10;1.63;;;;;;;7.55;60.23;101127.81;5057759;28;20068;-81
2022/04/12 05:17:50;;;;;;;5.40;1.52;;;;;;;7.78;59.08;101131.44;5042083;28;20052;-83
2022/04/12 05:20:34;;;;;;;2.33;1.52;;;;;;;7.96;58.23;101124.88;5045395;28;20041;-82
2022/04/12 05:23:00;;;;;;;4.68;1.60;;;;;;;8.16;57.76;101125.16;5046926;28;20033;-83
2022/04/12 05:25:25;;;;;;;4.45;1.60;;;;;;;8.46;56.84;101135.69;5062021;28;20046;-83
2022/04/12 05:28:09;;;;;;;3.47;1.60;;;;;;;8.87;56.24;101138.91;5044600;28;20049;-83
2022/04/12 05:30:35;;;;;;;3.63;1.50;;;;;;;9.09;55.50;101141.56;5042977;28;20075;-82
2022/04/12 05:33:00;;;;;;;4.10;1.55;;;;;;;9.21;54.71;101151.28;5045085;28;20041;-83
2022/04/12 05:35:26;;;;;;;3.85;1.60;;;;;;;9.31;54.41;101153.28;5044978;28;20439;-82
2022/04/12 05:38:16;;;;;;;4.72;1.60;;;;;;;9.42;54.01;101159.69;5035046;28;20048;-83
2022/04/12 05:41:00;;;;;;;5.22;2.17;;;;;;;9.43;53.49;101164.91;5033819;28;20075;-83
2022/04/12 05:43:45;;;;;;;5.35;2.25;;;;;;;9.62;53.13;101163.41;5034652;28;20095;-83
2022/04/12 05:46:29;;;;;;;4.72;2.17;;;;;;;9.68;51.96;101167.00;5032836;28;20530;-86
2022/04/12 05:48:55;;;;;;;5.07;2.13;;;;;;;9.66;52.38;101169.19;5029184;28;20059;-85
2022/04/12 05:51:20;;;;;;;4.70;1.92;;;;;;;9.66;52.31;101174.66;5035032;28;20128;-86
2022/04/12 05:53:46;;;;;;;6.18;2.25;;;;;;;9.64;51.83;101176.84;5034864;28;20516;-85
2022/04/12 05:56:30;;;;;;;4.82;2.53;;;;;;;9.67;51.44;101173.56;5032539;28;20195;-87
2022/04/12 05:59:14;;;;;;;4.65;2.38;;;;;;;9.71;50.90;101174.69;5032231;28;20041;-83
2022/04/12 06:01:58;;;;;;;6.72;2.60;;;;;;;9.64;51.65;101180.41;5033185;28;20107;-83
2022/04/12 06:04:42;;;;;;;8.77;2.50;;;;;;;9.79;51.42;101182.44;5030829;28;20888;-84
2022/04/12 06:07:32;;;;;;;4.72;2.00;;;;;;;10.11;50.56;101185.16;5014472;28;20103;-85
2022/04/12 06:10:17;;;;;;;4.35;2.00;;;;;;;10.49;49.20;101194.16;5012963;28;20068;-82
2022/04/12 06:12:43;;;;;;;6.15;2.15;;;;;;;10.84;48.42;101191.56;5026124;28;20033;-82
2022/04/12 06:15:09;;;;;;;4.93;2.38;;;;;;;11.21;47.97;101196.06;5032830;28;20083;-82
2022/04/12 06:17:54;;;;;;;6.25;3.05;;;;;;;11.72;46.59;101202.44;5031353;28;20123;-79
2022/04/12 06:20:38;;;;;;;3.97;2.50;;;;;;;12.21;45.79;101203.78;5032816;28;20090;-81
2022/04/12 06:23:23;;;;;;;6.85;3.00;;;;;;;12.73;44.80;101205.28;5012802;28;20061;-82
2022/04/12 06:26:07;;;;;;;5.38;2.58;;;;;;;13.12;43.68;101197.91;5043330;28;20099;-81
2022/04/12 06:28:33;;;;;;;6.93;2.90;;;;;;;13.42;43.63;101202.44;5047234;28;20038;-83
2022/04/12 06:30:59;;;;;;;8.63;3.35;;;;;;;13.71;42.00;101205.28;5015068;28;20091;-85
2022/04/12 06:33:28;;;;;;;8.57;2.92;;;;;;;13.87;42.07;101215.03;5040624;28;20144;-84
2022/04/12 06:36:12;;;;;;;5.95;3.00;;;;;;;14.07;41.51;101216.81;5019310;28;20107;-88
2022/04/12 06:38:57;;;;;;;5.25;2.60;;;;;;;14.19;41.30;101217.22;5038026;28;20044;-85
2022/04/12 06:41:41;;;;;;;5.38;3.67;;;;;;;14.27;40.34;101218.56;5033108;28;20114;-83
2022/04/12 06:44:07;;;;;;;6.57;2.83;;;;;;;14.40;40.11;101217.00;5032547;28;20446;-81
2022/04/12 06:46:33;;;;;;;7.32;3.00;;;;;;;14.69;39.37;101219.75;5037952;28;20033;-81
2022/04/12 06:49:17;;;;;;;10.25;3.60;;;;;;;14.97;39.36;101227.16;5038204;28;20706;-81
2022/04/12 06:52:01;;;;;;;7.30;4.00;;;;;;;15.24;38.99;101226.50;5033321;28;20045;-83
2022/04/12 06:54:46;;;;;;;5.70;3.42;;;;;;;15.48;38.05;101231.16;5050008;28;20087;-86
2022/04/12 06:57:33;;;;;;;10.68;3.33;;;;;;;15.74;37.77;101226.06;5033865;28;20049;-85
2022/04/12 07:00:18;;;;;;;;;;;;;;;15.94;37.48;101237.63;5031925;28;20052;-84
2022/04/12 07:03:02;;;;;;;8.50;2.55;;;;;;;16.11;36.82;101233.47;5031774;28;20422;-84
2022/04/12 07:05:49;;;;;;;5.72;2.38;;;;;;;16.19;36.31;101236.38;5031427;28;20071;-79
2022/04/12 07:08:15;;;;;;;9.63;2.60;;;;;;;16.32;36.46;101233.94;5031607;28;20416;-79
2022/04/12 07:10:42;;;;;;;6.28;2.35;;;;;;;16.43;36.15;101236.19;5030489;28;20034;-78
2022/04/12 07:13:26;;;;;;;5.43;2.78;;;;;;;16.51;36.09;101238.28;5032217;28;20044;-81
2022/04/12 07:16:10;;;;;;;6.78;2.38;;;;;;;16.62;35.72;101233.34;5031200;28;20052;-79
2022/04/12 07:18:55;;;;;;;9.15;2.88;;;;;;;16.75;35.57;101227.00;5019018;28;20048;-78
2022/04/12 07:21:39;;;;;;;9.98;3.65;;;;;;;16.84;35.18;101238.22;5034631;28;20043;-81
2022/04/12 07:24:06;;;;;;;7.28;2.10;;;;;;;16.89;34.88;101240.88;5047074;28;20084;-81
2022/04/12 07:26:32;;;;;;;5.57;1.88;;;;;;;17.04;34.04;101235.00;5031196;28;20057;-79
2022/04/12 07:29:17;;;;;;;3.95;1.73;;;;;;;17.08;32.58;101233.25;5030550;28;20087;-78
2022/04/12 07:32:02;;;;;;;5.63;1.60;;;;;;;16.96;32.16;101232.94;5011553;28;20088;-79
2022/04/12 07:34:46;;;;;;;7.13;1.75;;;;;;;16.82;32.71;101248.75;5024964;28;20137;-80
2022/04/12 07:37:30;;;;;;;6.07;1.52;;;;;;;16.87;32.37;101240.38;5015294;28;20048;-80
2022/04/12 07:40:15;;;;;;;11.45;2.40;;;;;;;16.87;31.72;101241.19;5024211;28;20051;-79
2022/04/12 07:43:00;;;;;;;4.72;1.48;;;;;;;16.86;31.86;101244.28;5018084;28;20064;-80
2022/04/12 07:45:26;;;;;;;5.57;2.63;;;;;;;16.73;32.43;101250.63;5031351;28;20255;-80
2022/04/12 07:47:51;;;;;;;7.93;3.20;;;;;;;16.91;32.09;101241.38;5027777;28;20299;-80
2022/04/12 07:50:35;;;;;;;12.45;2.67;;;;;;;17.15;32.07;101250.28;5029650;28;20052;-80
2022/04/12 07:53:20;;;;;;;5.35;2.58;;;;;;;17.19;31.66;101244.94;5030665;28;20128;-79
2022/04/12 07:56:04;;;;;;;4.60;1.85;;;;;;;17.26;31.16;101248.13;5033164;28;20518;-79
2022/04/12 07:58:48;;;;;;;3.70;1.70;;;;;;;17.38;30.88;101242.03;5024688;28;20041;-79
2022/04/12 08:01:14;;;;;;;4.28;1.73;;;;;;;17.73;30.34;101245.97;5001808;28;20045;-78
2022/04/12 08:03:40;;;;;;;7.00;2.58;;;;;;;17.81;30.58;101250.75;5026681;28;20048;-78
2022/04/12 08:06:06;;;;;;;5.50;1.52;;;;;;;17.93;30.06;101239.91;5030170;28;20087;-78
2022/04/12 08:08:50;;;;;;;5.65;2.15;;;;;;;18.17;29.89;101250.66;5029472;28;20064;-81
2022/04/12 08:11:34;;;;;;;10.82;2.72;;;;;;;18.52;29.20;101243.34;5030497;28;20052;-80
2022/04/12 08:14:00;;;;;;;4.30;1.70;;;;;;;18.64;28.71;101248.34;5027981;28;20042;-79
2022/04/12 08:16:25;;;;;;;7.35;2.45;;;;;;;18.82;28.57;101255.59;5030308;28;20041;-79
2022/04/12 08:19:09;;;;;;;9.80;2.10;;;;;;;18.97;28.55;101248.78;5027420;28;20044;-78
2022/04/12 08:21:54;;;;;;;7.25;1.70;;;;;;;19.39;28.17;101247.22;5025110;28;20048;-78
2022/04/12 08:24:39;;;;;;;4.03;2.33;;;;;;;19.55;27.39;101256.75;5027635;28;20052;-80
2022/04/12 08:27:23;;;;;;;5.05;3.40;;;;;;;19.62;27.60;101258.25;5020170;28;20456;-79
2022/04/12 08:30:07;;;;;;;4.53;1.63;;;;;;;19.30;27.27;101249.19;5020783;28;20420;-79
2022/04/12 08:32:52;;;;;;;6.78;1.70;;;;;;;19.30;27.59;101253.94;5023261;28;20053;-79
2022/04/12 08:35:18;;;;;;;10.90;1.58;;;;;;;19.22;26.81;101253.56;5021406;28;20042;-78
2022/04/12 08:37:44;;;;;;;2.75;1.30;;;;;;;18.84;26.37;101255.28;5021624;28;20060;-78
2022/04/12 08:40:10;;;;;;;8.73;1.30;;;;;;;18.92;26.44;101255.31;5030621;28;20139;-79
2022/04/12 08:42:55;;;;;;;3.70;0.90;;;;;;;18.78;26.67;101259.34;5026087;28;20052;-78
2022/04/12 08:45:41;;;;;;;8.48;1.17;;;;;;;18.81;26.70;101253.16;5030690;28;20048;-79
2022/04/12 08:48:26;;;;;;;13.65;1.30;;;;;;;18.86;26.10;101258.56;5029285;28;20115;-78
2022/04/12 08:51:10;;;;;;;31.73;3.10;;;;;;;18.58;26.52;101249.59;5029494;28;20064;-79
2022/04/12 08:53:36;;;;;;;7.93;1.30;;;;;;;18.42;26.26;101246.41;5029304;28;20478;-79
2022/04/12 08:56:02;;;;;;;3.35;1.10;;;;;;;18.12;26.64;101256.38;5028880;28;20049;-78
2022/04/12 08:58:28;;;;;;;4.18;1.00;;;;;;;18.23;26.65;101256.94;5026284;28;20045;-79
2022/04/12 09:01:12;;;;;;;3.70;1.15;;;;;;;18.14;26.88;101254.09;5047408;28;20064;-79
2022/04/12 09:03:57;;;;;;;2.70;0.95;;;;;;;17.94;26.77;101260.16;5049702;28;20091;-79
2022/04/12 09:06:49;;;;;;;1.60;0.80;;;;;;;17.89;26.62;101263.88;5050140;28;20562;-79
2022/04/12 09:09:19;;;;;;;3.30;1.10;;;;;;;18.01;27.13;101257.75;5050245;28;20052;-78
2022/04/12 09:12:02;;;;;;;3.92;1.13;;;;;;;18.06;27.31;101254.88;5050661;28;20119;-79
2022/04/12 09:14:56;;;;;;;3.00;1.05;;;;;;;17.93;27.24;101258.53;5053978;28;20052;-79
2022/04/12 09:17:44;;;;;;;3.63;1.00;;;;;;;17.48;27.57;101259.25;5027095;28;20171;-77
2022/04/12 09:20:28;;;;;;;;;;;;;;;17.06;27.88;101257.69;5025967;28;20065;-87
2022/04/12 09:23:16;;;;;;;4.78;0.60;;;;;;;16.30;28.74;101259.16;5031767;28;20437;-78
2022/04/12 09:26:01;;;;;;;6.18;2.42;;;;;;;15.53;29.46;101261.50;5042989;28;20060;-80
2022/04/12 09:28:45;;;;;;;2.42;0.88;;;;;;;14.84;30.57;101271.25;5022963;28;20084;-78
2022/04/12 09:31:15;;;;;;;4.70;1.40;;;;;;;14.23;30.66;101266.31;5045735;28;20475;-79
2022/04/12 09:33:42;;;;;;;10.48;1.20;;;;;;;13.76;31.30;101270.59;5022494;28;20037;-78
2022/04/12 09:36:08;;;;;;;4.45;0.73;;;;;;;13.42;31.65;101274.13;5036761;28;20079;-79
2022/04/12 09:38:56;;;;;;;2.78;1.08;;;;;;;13.06;32.83;101281.72;5048996;28;20040;-78
2022/04/12 09:41:41;;;;;;;36.72;2.15;;;;;;;12.72;33.89;101286.25;5018665;28;20048;-79
2022/04/12 09:44:25;;;;;;;37.90;3.55;;;;;;;12.41;33.96;101285.47;5032802;28;20048;-79
2022/04/12 09:47:14;;;;;;;8.52;1.20;;;;;;;12.13;34.73;101284.13;5033459;28;20498;-78
2022/04/12 09:49:48;;;;;;;4.80;1.13;;;;;;;11.87;34.72;101284.13;5033829;28;20072;-79
2022/04/12 09:52:13;;;;;;;7.13;0.98;;;;;;;11.77;35.07;101292.31;5033415;28;20033;-79
2022/04/12 09:54:39;;;;;;;3.65;0.63;;;;;;;11.65;35.51;101289.84;5065697;28;20048;-80
2022/04/12 09:57:26;;;;;;;3.55;0.95;;;;;;;11.44;35.48;101286.22;5033341;28;20127;-80
2022/04/12 10:00:11;;;;;;;2.08;0.70;;;;;;;11.52;35.70;101290.38;5026564;28;20052;-79
2022/04/12 10:02:59;;;;;;;4.05;0.55;;;;;;;11.45;36.08;101293.38;5033326;28;20439;-79
2022/04/12 10:05:43;;;;;;;2.92;0.88;;;;;;;11.33;35.60;101298.28;5060477;28;20072;-78
2022/04/12 10:08:31;;;;;;;2.80;0.70;;;;;;;11.35;35.63;101304.34;5060062;28;20053;-79
2022/04/12 10:11:15;;;;;;;3.27;1.00;;;;;;;11.38;35.75;101300.22;5031914;28;20530;-79
2022/04/12 10:13:41;;;;;;;2.67;0.90;;;;;;;11.45;36.89;101301.63;5031635;28;20536;-79
2022/04/12 10:16:07;;;;;;;3.53;0.95;;;;;;;11.32;37.89;101295.81;5033214;28;20052;-79
2022/04/12 10:18:33;;;;;;;2.83;0.88;;;;;;;11.32;37.56;101299.38;5032401;28;20047;-80
2022/04/12 10:21:19;;;;;;;4.70;0.73;;;;;;;11.23;37.97;101289.19;5027547;28;20084;-79
2022/04/12 10:24:04;;;;;;;3.78;0.82;;;;;;;11.21;38.12;101299.63;5024102;28;20092;-78
2022/04/12 10:26:50;;;;;;;4.80;0.90;;;;;;;11.16;38.41;101303.19;5032023;28;20533;-79
2022/04/12 10:29:35;;;;;;;1.55;0.73;;;;;;;11.02;38.86;101307.50;5017846;28;20053;-79
2022/04/12 10:32:19;;;;;;;6.03;1.60;;;;;;;10.91;38.48;101301.13;5032644;28;20184;-78
2022/04/12 10:35:04;;;;;;;3.25;1.27;;;;;;;10.87;38.15;101303.59;5032622;28;20052;-79
2022/04/12 10:37:30;;;;;;;5.63;1.23;;;;;;;10.92;38.39;101304.69;5031108;28;20037;-79
2022/04/12 10:40:03;;;;;;;3.70;1.30;;;;;;;10.82;38.21;101305.50;5032289;28;20140;-79
2022/04/12 10:42:32;;;;;;;2.85;1.00;;;;;;;10.71;38.64;101290.88;5031285;28;20124;-79
2022/04/12 10:45:16;;;;;;;8.18;0.90;;;;;;;10.59;38.79;101304.00;5044941;28;20198;-79
2022/04/12 10:47:44;;;;;;;1.48;0.85;;;;;;;10.44;39.21;101296.50;5031066;28;20132;-78
2022/04/12 10:50:11;;;;;;;;;;;;;;;10.34;39.50;101301.06;5032899;28;20048;-78
2022/04/12 10:52:55;;;;;;;3.97;1.27;;;;;;;10.24;39.72;101308.16;5032088;28;19943;-78
2022/04/12 10:55:41;;;;;;;2.92;0.85;;;;;;;10.16;39.77;101305.84;5031228;28;20052;-78
2022/04/12 10:58:30;;;;;;;2.55;0.70;;;;;;;10.17;39.67;101312.16;5031064;28;20071;-78
2022/04/12 11:01:30;;;;;;;2.92;0.98;;;;;;;10.18;38.84;101313.81;5029220;28;20052;-78
2022/04/12 11:03:57;;;;;;;4.07;1.10;;;;;;;10.17;39.43;101323.13;5031861;28;20064;-78
2022/04/12 11:06:27;;;;;;;3.15;0.75;;;;;;;10.18;39.09;101313.81;5031229;28;20538;-78
2022/04/12 11:09:15;;;;;;;;;;;;;;;10.12;39.58;101325.81;5031304;28;20056;-77
2022/04/12 11:12:01;;;;;;;1.00;0.60;;;;;;;10.02;38.66;101317.50;5030877;28;20362;-77
2022/04/12 11:14:46;;;;;;;1.65;0.80;;;;;;;10.01;38.84;101327.66;5030765;28;20064;-77
2022/04/12 11:17:35;;;;;;;2.45;0.50;;;;;;;9.89;39.61;101330.56;5031599;28;20060;-79
2022/04/12 11:20:21;;;;;;;2.58;0.98;;;;;;;9.82;39.47;101321.72;5031810;28;20047;-79
2022/04/12 11:22:56;;;;;;;2.65;0.73;;;;;;;9.80;39.31;101323.88;5031915;28;20041;-79
2022/04/12 11:25:22;;;;;;;3.30;0.90;;;;;;;9.78;39.93;101326.06;5031172;28;20094;-79
2022/04/12 11:28:06;;;;;;;4.88;0.77;;;;;;;9.69;40.00;101327.59;5031282;28;20103;-78
2022/04/12 11:30:53;;;;;;;3.90;0.70;;;;;;;9.71;40.48;101324.59;5031740;28;20039;-79
2022/04/12 11:33:37;;;;;;;2.28;0.50;;;;;;;9.72;39.58;101318.88;5031380;28;20107;-79
2022/04/12 11:36:22;;;;;;;1.48;0.50;;;;;;;9.65;39.54;101312.78;5029778;28;20080;-79
2022/04/12 11:39:06;;;;;;;1.98;0.63;;;;;;;9.62;39.25;101322.34;5030367;28;20056;-79
2022/04/12 11:41:32;;;;;;;3.30;0.70;;;;;;;9.55;40.20;101312.69;5031285;28;20037;-79
2022/04/12 11:44:07;;;;;;;2.67;0.63;;;;;;;9.46;40.22;101325.16;5030158;28;20107;-79
2022/04/12 11:46:55;;;;;;;4.35;0.82;;;;;;;9.40;40.19;101327.03;5031129;28;20092;-79
2022/04/12 11:49:41;;;;;;;3.60;0.70;;;;;;;9.38;40.37;101333.84;5031469;28;20129;-77
2022/04/12 11:52:27;;;;;;;4.80;0.70;;;;;;;9.33;40.69;101327.22;5030870;28;20051;-79
2022/04/12 11:55:13;;;;;;;9.93;1.08;;;;;;;9.29;40.49;101326.06;5029794;28;20053;-79
2022/04/12 11:57:38;;;;;;;1.92;0.60;;;;;;;9.23;40.47;101324.38;5031193;28;20037;-79
2022/04/12 12:00:05;;;;;;;3.33;0.85;;;;;;;9.24;40.60;101325.19;5029653;28;20048;-79
2022/04/12 12:02:35;;;;;;;0.98;0.65;;;;;;;9.29;41.13;101328.00;5030848;28;20598;-79
2022/04/12 12:05:21;;;;;;;3.83;0.90;;;;;;;9.26;40.74;101326.59;5030778;28;20567;-79
2022/04/12 12:08:05;;;;;;;4.22;0.80;;;;;;;9.22;40.75;101322.72;5030950;28;20547;-79
2022/04/12 12:10:52;;;;;;;2.28;0.80;;;;;;;9.15;40.50;101322.06;5030946;28;20091;-79
2022/04/12 12:13:24;;;;;;;4.40;0.95;;;;;;;9.14;40.05;101320.41;5031195;28;20041;-79
2022/04/12 12:15:50;;;;;;;1.20;0.75;;;;;;;9.16;40.66;101318.25;5030979;28;20091;-79
2022/04/12 12:18:18;;;;;;;2.88;0.68;;;;;;;9.16;40.94;101323.72;5046290;28;20045;-79
2022/04/12 12:21:02;;;;;;;1.55;1.10;;;;;;;9.12;40.01;101325.31;5016300;28;20095;-79
2022/04/12 12:23:46;;;;;;;4.20;0.80;;;;;;;9.09;40.44;101317.63;5029848;28;20052;-79
2022/04/12 12:26:12;;;;;;;6.05;1.45;;;;;;;9.05;40.38;101327.44;5030113;28;20056;-78